sensor_id;sensor_type;location;lat;lon;timestamp;P1;durP1;ratioP1;P2;durP2;ratioP2
17424;SDS011;8830;50.978;5.058;2023-03-31T00:01:58;11.13;;;1.67;;
17424;SDS011;8830;50.978;5.058;2023-03-31T00:04:27;4.17;;;1.30;;
17424;SDS011;8830;50.978;5.058;2023-03-31T00:06:56;7.57;;;2.10;;
17424;SDS011;8830;50.978;5.058;2023-03-31T00:09:23;6.97;;;1.33;;
17424;SDS011;8830;50.978;5.058;2023-03-31T00:11:54;6.23;;;1.90;;
17424;SDS011;8830;50.978;5.058;2023-03-31T00:14:21;8.73;;;1.57;;
17424;SDS011;8830;50.978;5.058;2023-03-31T00:16:48;10.07;;;2.00;;
17424;SDS011;8830;50.978;5.058;2023-03-31T00:19:15;6.50;;;2.13;;
17424;SDS011;8830;50.978;5.058;2023-03-31T00:21:47;8.57;;;1.70;;
17424;SDS011;8830;50.978;5.058;2023-03-31T00:24:16;11.87;;;2.20;;
17424;SDS011;8830;50.978;5.058;2023-03-31T00:26:43;11.20;;;2.00;;
17424;SDS011;8830;50.978;5.058;2023-03-31T00:29:11;6.03;;;2.07;;
17424;SDS011;8830;50.978;5.058;2023-03-31T00:31:38;9.17;;;2.53;;
17424;SDS011;8830;50.978;5.058;2023-03-31T00:34:06;7.13;;;2.13;;
17424;SDS011;8830;50.978;5.058;2023-03-31T00:36:33;11.30;;;2.57;;
17424;SDS011;8830;50.978;5.058;2023-03-31T00:39:13;7.83;;;1.87;;
17424;SDS011;8830;50.978;5.058;2023-03-31T00:41:42;11.73;;;2.60;;
17424;SDS011;8830;50.978;5.058;2023-03-31T00:44:12;13.37;;;2.77;;
17424;SDS011;8830;50.978;5.058;2023-03-31T00:46:49;11.20;;;2.63;;
17424;SDS011;8830;50.978;5.058;2023-03-31T00:49:19;14.07;;;2.70;;
17424;SDS011;8830;50.978;5.058;2023-03-31T00:51:51;10.70;;;3.03;;
17424;SDS011;8830;50.978;5.058;2023-03-31T00:54:21;18.03;;;2.53;;
17424;SDS011;8830;50.978;5.058;2023-03-31T00:56:50;12.07;;;2.90;;
17424;SDS011;8830;50.978;5.058;2023-03-31T00:59:24;11.00;;;2.47;;
17424;SDS011;8830;50.978;5.058;2023-03-31T01:01:55;13.50;;;2.83;;
17424;SDS011;8830;50.978;5.058;2023-03-31T01:04:26;13.37;;;3.50;;
17424;SDS011;8830;50.978;5.058;2023-03-31T01:07:00;11.27;;;3.93;;
17424;SDS011;8830;50.978;5.058;2023-03-31T01:09:34;11.83;;;2.70;;
17424;SDS011;8830;50.978;5.058;2023-03-31T01:12:05;16.37;;;3.07;;
17424;SDS011;8830;50.978;5.058;2023-03-31T01:14:35;14.43;;;2.73;;
17424;SDS011;8830;50.978;5.058;2023-03-31T01:17:02;13.20;;;2.87;;
17424;SDS011;8830;50.978;5.058;2023-03-31T01:19:33;16.40;;;2.50;;
17424;SDS011;8830;50.978;5.058;2023-03-31T01:28:31;13.77;;;2.90;;
17424;SDS011;8830;50.978;5.058;2023-03-31T01:31:08;15.27;;;2.63;;
17424;SDS011;8830;50.978;5.058;2023-03-31T01:43:00;10.67;;;2.40;;
17424;SDS011;8830;50.978;5.058;2023-03-31T01:45:37;11.93;;;2.23;;
17424;SDS011;8830;50.978;5.058;2023-03-31T01:48:18;8.50;;;2.23;;
17424;SDS011;8830;50.978;5.058;2023-03-31T01:50:54;11.80;;;2.73;;
17424;SDS011;8830;50.978;5.058;2023-03-31T01:53:24;12.47;;;2.33;;
17424;SDS011;8830;50.978;5.058;2023-03-31T01:56:01;15.07;;;2.50;;
17424;SDS011;8830;50.978;5.058;2023-03-31T01:58:33;16.23;;;2.87;;
17424;SDS011;8830;50.978;5.058;2023-03-31T02:01:05;14.63;;;2.60;;
17424;SDS011;8830;50.978;5.058;2023-03-31T02:03:42;11.23;;;1.93;;
17424;SDS011;8830;50.978;5.058;2023-03-31T02:06:13;11.10;;;2.23;;
17424;SDS011;8830;50.978;5.058;2023-03-31T02:08:47;10.00;;;2.87;;
17424;SDS011;8830;50.978;5.058;2023-03-31T02:11:19;13.83;;;2.67;;
17424;SDS011;8830;50.978;5.058;2023-03-31T02:13:47;11.57;;;2.00;;
17424;SDS011;8830;50.978;5.058;2023-03-31T02:16:19;10.40;;;2.70;;
17424;SDS011;8830;50.978;5.058;2023-03-31T02:18:50;3.80;;;1.40;;
17424;SDS011;8830;50.978;5.058;2023-03-31T02:21:27;9.13;;;1.70;;
17424;SDS011;8830;50.978;5.058;2023-03-31T02:23:55;10.10;;;1.90;;
17424;SDS011;8830;50.978;5.058;2023-03-31T02:26:26;8.80;;;1.87;;
17424;SDS011;8830;50.978;5.058;2023-03-31T02:28:56;3.83;;;1.30;;
17424;SDS011;8830;50.978;5.058;2023-03-31T02:31:25;4.57;;;1.60;;
17424;SDS011;8830;50.978;5.058;2023-03-31T02:34:00;11.27;;;2.97;;
17424;SDS011;8830;50.978;5.058;2023-03-31T02:36:29;5.67;;;1.50;;
17424;SDS011;8830;50.978;5.058;2023-03-31T02:38:59;5.30;;;1.63;;
17424;SDS011;8830;50.978;5.058;2023-03-31T02:41:31;6.53;;;1.37;;
17424;SDS011;8830;50.978;5.058;2023-03-31T02:43:58;7.87;;;1.77;;
17424;SDS011;8830;50.978;5.058;2023-03-31T02:46:25;6.87;;;1.60;;
17424;SDS011;8830;50.978;5.058;2023-03-31T02:48:54;5.63;;;1.63;;
17424;SDS011;8830;50.978;5.058;2023-03-31T02:54:25;7.33;;;1.30;;
17424;SDS011;8830;50.978;5.058;2023-03-31T02:57:14;5.57;;;1.87;;
17424;SDS011;8830;50.978;5.058;2023-03-31T02:59:59;7.70;;;1.53;;
17424;SDS011;8830;50.978;5.058;2023-03-31T03:02:36;8.03;;;1.63;;
17424;SDS011;8830;50.978;5.058;2023-03-31T03:05:16;6.80;;;1.70;;
17424;SDS011;8830;50.978;5.058;2023-03-31T03:07:51;4.73;;;1.47;;
17424;SDS011;8830;50.978;5.058;2023-03-31T03:10:27;6.17;;;1.50;;
17424;SDS011;8830;50.978;5.058;2023-03-31T03:13:04;4.27;;;1.20;;
17424;SDS011;8830;50.978;5.058;2023-03-31T03:15:37;4.37;;;1.10;;
17424;SDS011;8830;50.978;5.058;2023-03-31T03:18:08;5.47;;;1.33;;
17424;SDS011;8830;50.978;5.058;2023-03-31T03:20:35;8.10;;;1.40;;
17424;SDS011;8830;50.978;5.058;2023-03-31T03:23:03;7.10;;;1.50;;
17424;SDS011;8830;50.978;5.058;2023-03-31T03:25:30;9.70;;;1.53;;
17424;SDS011;8830;50.978;5.058;2023-03-31T03:27:58;6.33;;;1.27;;
17424;SDS011;8830;50.978;5.058;2023-03-31T03:30:26;4.33;;;1.20;;
17424;SDS011;8830;50.978;5.058;2023-03-31T03:32:53;3.17;;;1.23;;
17424;SDS011;8830;50.978;5.058;2023-03-31T03:35:23;5.10;;;1.30;;
17424;SDS011;8830;50.978;5.058;2023-03-31T03:37:50;4.27;;;1.30;;
17424;SDS011;8830;50.978;5.058;2023-03-31T03:40:18;6.67;;;1.67;;
17424;SDS011;8830;50.978;5.058;2023-03-31T03:42:45;3.93;;;1.17;;
17424;SDS011;8830;50.978;5.058;2023-03-31T03:45:12;3.27;;;0.93;;
17424;SDS011;8830;50.978;5.058;2023-03-31T03:47:40;6.00;;;1.20;;
17424;SDS011;8830;50.978;5.058;2023-03-31T03:50:08;5.37;;;1.20;;
17424;SDS011;8830;50.978;5.058;2023-03-31T03:52:35;6.97;;;1.60;;
17424;SDS011;8830;50.978;5.058;2023-03-31T03:55:03;6.00;;;1.40;;
17424;SDS011;8830;50.978;5.058;2023-03-31T03:57:31;6.30;;;1.13;;
17424;SDS011;8830;50.978;5.058;2023-03-31T03:59:59;4.60;;;1.30;;
17424;SDS011;8830;50.978;5.058;2023-03-31T04:02:26;4.97;;;1.30;;
17424;SDS011;8830;50.978;5.058;2023-03-31T04:04:55;3.63;;;1.00;;
17424;SDS011;8830;50.978;5.058;2023-03-31T04:07:22;5.67;;;1.47;;
17424;SDS011;8830;50.978;5.058;2023-03-31T04:09:49;3.43;;;1.37;;
17424;SDS011;8830;50.978;5.058;2023-03-31T04:12:16;8.17;;;1.30;;
17424;SDS011;8830;50.978;5.058;2023-03-31T04:14:45;5.83;;;1.60;;
17424;SDS011;8830;50.978;5.058;2023-03-31T04:17:12;6.67;;;1.70;;
17424;SDS011;8830;50.978;5.058;2023-03-31T04:19:39;3.83;;;1.17;;
17424;SDS011;8830;50.978;5.058;2023-03-31T04:22:08;5.90;;;1.30;;
17424;SDS011;8830;50.978;5.058;2023-03-31T04:24:39;7.10;;;1.53;;
17424;SDS011;8830;50.978;5.058;2023-03-31T04:27:10;4.93;;;1.80;;
17424;SDS011;8830;50.978;5.058;2023-03-31T04:29:37;4.37;;;1.50;;
17424;SDS011;8830;50.978;5.058;2023-03-31T04:32:04;6.87;;;2.00;;
17424;SDS011;8830;50.978;5.058;2023-03-31T04:34:31;7.27;;;1.40;;
17424;SDS011;8830;50.978;5.058;2023-03-31T04:37:01;5.67;;;1.57;;
17424;SDS011;8830;50.978;5.058;2023-03-31T04:39:30;8.00;;;1.47;;
17424;SDS011;8830;50.978;5.058;2023-03-31T04:41:57;5.27;;;1.47;;
17424;SDS011;8830;50.978;5.058;2023-03-31T04:44:25;6.33;;;1.70;;
17424;SDS011;8830;50.978;5.058;2023-03-31T04:46:53;9.40;;;1.60;;
17424;SDS011;8830;50.978;5.058;2023-03-31T04:49:20;7.00;;;1.40;;
17424;SDS011;8830;50.978;5.058;2023-03-31T04:51:47;7.60;;;1.50;;
17424;SDS011;8830;50.978;5.058;2023-03-31T04:54:14;7.33;;;1.87;;
17424;SDS011;8830;50.978;5.058;2023-03-31T04:56:43;8.77;;;1.70;;
17424;SDS011;8830;50.978;5.058;2023-03-31T04:59:10;8.37;;;1.70;;
17424;SDS011;8830;50.978;5.058;2023-03-31T05:01:37;9.23;;;2.43;;
17424;SDS011;8830;50.978;5.058;2023-03-31T05:04:09;6.47;;;2.27;;
17424;SDS011;8830;50.978;5.058;2023-03-31T05:06:36;2.93;;;1.20;;
17424;SDS011;8830;50.978;5.058;2023-03-31T05:09:03;4.73;;;1.67;;
17424;SDS011;8830;50.978;5.058;2023-03-31T05:11:30;7.53;;;2.30;;
17424;SDS011;8830;50.978;5.058;2023-03-31T05:13:58;6.90;;;2.37;;
17424;SDS011;8830;50.978;5.058;2023-03-31T05:16:25;9.63;;;2.70;;
17424;SDS011;8830;50.978;5.058;2023-03-31T05:18:52;10.27;;;2.47;;
17424;SDS011;8830;50.978;5.058;2023-03-31T05:21:20;7.73;;;2.30;;
17424;SDS011;8830;50.978;5.058;2023-03-31T05:23:47;10.97;;;2.27;;
17424;SDS011;8830;50.978;5.058;2023-03-31T05:26:15;5.70;;;1.40;;
17424;SDS011;8830;50.978;5.058;2023-03-31T05:28:42;5.67;;;1.97;;
17424;SDS011;8830;50.978;5.058;2023-03-31T05:31:11;9.60;;;2.00;;
17424;SDS011;8830;50.978;5.058;2023-03-31T05:33:38;9.50;;;1.83;;
17424;SDS011;8830;50.978;5.058;2023-03-31T05:36:08;9.93;;;2.33;;
17424;SDS011;8830;50.978;5.058;2023-03-31T05:38:41;7.80;;;1.90;;
17424;SDS011;8830;50.978;5.058;2023-03-31T05:41:10;8.70;;;1.83;;
17424;SDS011;8830;50.978;5.058;2023-03-31T05:43:37;9.40;;;2.20;;
17424;SDS011;8830;50.978;5.058;2023-03-31T05:46:04;8.07;;;2.07;;
17424;SDS011;8830;50.978;5.058;2023-03-31T05:48:33;6.47;;;1.73;;
17424;SDS011;8830;50.978;5.058;2023-03-31T05:51:02;10.63;;;2.27;;
17424;SDS011;8830;50.978;5.058;2023-03-31T05:53:29;6.70;;;2.10;;
17424;SDS011;8830;50.978;5.058;2023-03-31T05:55:56;11.47;;;1.87;;
17424;SDS011;8830;50.978;5.058;2023-03-31T05:58:24;9.67;;;2.30;;
17424;SDS011;8830;50.978;5.058;2023-03-31T06:00:58;10.60;;;2.07;;
17424;SDS011;8830;50.978;5.058;2023-03-31T06:03:27;8.87;;;2.23;;
17424;SDS011;8830;50.978;5.058;2023-03-31T06:05:55;10.27;;;2.83;;
17424;SDS011;8830;50.978;5.058;2023-03-31T06:08:23;5.23;;;2.20;;
17424;SDS011;8830;50.978;5.058;2023-03-31T06:10:51;8.23;;;2.37;;
17424;SDS011;8830;50.978;5.058;2023-03-31T06:13:18;9.30;;;2.30;;
17424;SDS011;8830;50.978;5.058;2023-03-31T06:15:51;9.67;;;2.70;;
17424;SDS011;8830;50.978;5.058;2023-03-31T06:18:19;8.37;;;2.23;;
17424;SDS011;8830;50.978;5.058;2023-03-31T06:20:46;9.47;;;2.20;;
17424;SDS011;8830;50.978;5.058;2023-03-31T06:23:14;7.37;;;2.13;;
17424;SDS011;8830;50.978;5.058;2023-03-31T06:25:41;8.97;;;1.93;;
17424;SDS011;8830;50.978;5.058;2023-03-31T06:28:08;11.53;;;2.00;;
17424;SDS011;8830;50.978;5.058;2023-03-31T06:30:36;6.37;;;1.90;;
17424;SDS011;8830;50.978;5.058;2023-03-31T06:33:03;11.33;;;2.47;;
17424;SDS011;8830;50.978;5.058;2023-03-31T06:35:31;7.93;;;2.30;;
17424;SDS011;8830;50.978;5.058;2023-03-31T06:37:58;8.93;;;2.53;;
17424;SDS011;8830;50.978;5.058;2023-03-31T06:40:26;11.43;;;2.37;;
17424;SDS011;8830;50.978;5.058;2023-03-31T06:42:53;5.73;;;1.93;;
17424;SDS011;8830;50.978;5.058;2023-03-31T06:45:20;6.80;;;2.13;;
17424;SDS011;8830;50.978;5.058;2023-03-31T06:47:47;11.33;;;3.00;;
17424;SDS011;8830;50.978;5.058;2023-03-31T06:50:14;11.50;;;2.70;;
17424;SDS011;8830;50.978;5.058;2023-03-31T06:52:41;7.87;;;2.30;;
17424;SDS011;8830;50.978;5.058;2023-03-31T06:55:08;7.87;;;2.00;;
17424;SDS011;8830;50.978;5.058;2023-03-31T06:57:38;11.53;;;2.60;;
17424;SDS011;8830;50.978;5.058;2023-03-31T07:00:06;10.17;;;2.20;;
17424;SDS011;8830;50.978;5.058;2023-03-31T07:02:34;12.50;;;2.83;;
17424;SDS011;8830;50.978;5.058;2023-03-31T07:05:02;10.27;;;2.10;;
17424;SDS011;8830;50.978;5.058;2023-03-31T07:07:29;14.83;;;2.70;;
17424;SDS011;8830;50.978;5.058;2023-03-31T07:09:56;10.97;;;2.00;;
17424;SDS011;8830;50.978;5.058;2023-03-31T07:12:23;11.67;;;2.00;;
17424;SDS011;8830;50.978;5.058;2023-03-31T07:14:51;12.33;;;2.80;;
17424;SDS011;8830;50.978;5.058;2023-03-31T07:17:18;12.07;;;3.07;;
17424;SDS011;8830;50.978;5.058;2023-03-31T07:19:49;9.17;;;2.30;;
17424;SDS011;8830;50.978;5.058;2023-03-31T07:22:16;6.60;;;2.30;;
17424;SDS011;8830;50.978;5.058;2023-03-31T07:24:43;10.73;;;2.90;;
17424;SDS011;8830;50.978;5.058;2023-03-31T07:27:10;8.20;;;2.53;;
17424;SDS011;8830;50.978;5.058;2023-03-31T07:29:37;7.37;;;2.47;;
17424;SDS011;8830;50.978;5.058;2023-03-31T07:32:05;9.03;;;2.40;;
17424;SDS011;8830;50.978;5.058;2023-03-31T07:34:32;11.57;;;2.43;;
17424;SDS011;8830;50.978;5.058;2023-03-31T07:37:01;8.93;;;2.27;;
17424;SDS011;8830;50.978;5.058;2023-03-31T07:39:28;11.50;;;2.57;;
17424;SDS011;8830;50.978;5.058;2023-03-31T07:41:55;6.97;;;2.23;;
17424;SDS011;8830;50.978;5.058;2023-03-31T07:44:22;10.20;;;2.67;;
17424;SDS011;8830;50.978;5.058;2023-03-31T07:46:49;10.73;;;2.73;;
17424;SDS011;8830;50.978;5.058;2023-03-31T07:49:18;9.93;;;3.20;;
17424;SDS011;8830;50.978;5.058;2023-03-31T07:51:45;10.47;;;3.33;;
17424;SDS011;8830;50.978;5.058;2023-03-31T07:54:12;10.40;;;2.63;;
17424;SDS011;8830;50.978;5.058;2023-03-31T07:56:39;8.60;;;2.60;;
17424;SDS011;8830;50.978;5.058;2023-03-31T07:59:06;17.83;;;3.47;;
17424;SDS011;8830;50.978;5.058;2023-03-31T08:01:34;8.10;;;2.83;;
17424;SDS011;8830;50.978;5.058;2023-03-31T08:04:01;8.50;;;2.57;;
17424;SDS011;8830;50.978;5.058;2023-03-31T08:06:29;11.77;;;2.77;;
17424;SDS011;8830;50.978;5.058;2023-03-31T08:08:57;13.13;;;2.97;;
17424;SDS011;8830;50.978;5.058;2023-03-31T08:11:24;11.03;;;3.10;;
17424;SDS011;8830;50.978;5.058;2023-03-31T08:13:52;11.97;;;2.83;;
17424;SDS011;8830;50.978;5.058;2023-03-31T08:16:19;14.40;;;3.33;;
17424;SDS011;8830;50.978;5.058;2023-03-31T08:18:46;11.10;;;2.90;;
17424;SDS011;8830;50.978;5.058;2023-03-31T08:21:14;10.03;;;3.50;;
17424;SDS011;8830;50.978;5.058;2023-03-31T08:23:42;10.57;;;2.67;;
17424;SDS011;8830;50.978;5.058;2023-03-31T08:26:10;10.57;;;2.63;;
17424;SDS011;8830;50.978;5.058;2023-03-31T08:28:40;10.33;;;3.43;;
17424;SDS011;8830;50.978;5.058;2023-03-31T08:31:07;12.23;;;3.40;;
17424;SDS011;8830;50.978;5.058;2023-03-31T08:33:35;14.00;;;3.40;;
17424;SDS011;8830;50.978;5.058;2023-03-31T08:36:03;13.23;;;3.00;;
17424;SDS011;8830;50.978;5.058;2023-03-31T08:38:32;8.07;;;2.90;;
17424;SDS011;8830;50.978;5.058;2023-03-31T08:41:03;12.47;;;2.60;;
17424;SDS011;8830;50.978;5.058;2023-03-31T08:43:33;12.00;;;3.00;;
17424;SDS011;8830;50.978;5.058;2023-03-31T08:46:05;11.10;;;3.07;;
17424;SDS011;8830;50.978;5.058;2023-03-31T08:48:38;9.53;;;2.90;;
17424;SDS011;8830;50.978;5.058;2023-03-31T08:51:14;8.40;;;2.90;;
17424;SDS011;8830;50.978;5.058;2023-03-31T08:53:46;11.70;;;3.67;;
17424;SDS011;8830;50.978;5.058;2023-03-31T08:56:19;15.80;;;2.77;;
17424;SDS011;8830;50.978;5.058;2023-03-31T08:58:49;9.17;;;2.70;;
17424;SDS011;8830;50.978;5.058;2023-03-31T09:01:20;12.00;;;2.63;;
17424;SDS011;8830;50.978;5.058;2023-03-31T09:03:55;11.47;;;2.80;;
17424;SDS011;8830;50.978;5.058;2023-03-31T09:06:35;12.57;;;2.80;;
17424;SDS011;8830;50.978;5.058;2023-03-31T09:09:09;10.73;;;3.20;;
17424;SDS011;8830;50.978;5.058;2023-03-31T09:11:42;7.30;;;2.33;;
17424;SDS011;8830;50.978;5.058;2023-03-31T09:14:17;10.43;;;2.17;;
17424;SDS011;8830;50.978;5.058;2023-03-31T09:16:53;6.73;;;2.43;;
17424;SDS011;8830;50.978;5.058;2023-03-31T09:19:30;5.30;;;2.00;;
17424;SDS011;8830;50.978;5.058;2023-03-31T09:22:03;4.63;;;1.67;;
17424;SDS011;8830;50.978;5.058;2023-03-31T09:24:39;7.07;;;1.67;;
17424;SDS011;8830;50.978;5.058;2023-03-31T09:27:14;4.37;;;1.67;;
17424;SDS011;8830;50.978;5.058;2023-03-31T09:29:41;5.13;;;2.00;;
17424;SDS011;8830;50.978;5.058;2023-03-31T09:32:13;6.10;;;1.60;;
17424;SDS011;8830;50.978;5.058;2023-03-31T09:34:42;5.43;;;1.70;;
17424;SDS011;8830;50.978;5.058;2023-03-31T09:37:11;5.50;;;1.80;;
17424;SDS011;8830;50.978;5.058;2023-03-31T09:39:38;4.13;;;1.73;;
17424;SDS011;8830;50.978;5.058;2023-03-31T09:42:06;6.03;;;2.17;;
17424;SDS011;8830;50.978;5.058;2023-03-31T09:44:35;6.60;;;2.23;;
17424;SDS011;8830;50.978;5.058;2023-03-31T09:47:05;6.70;;;2.00;;
17424;SDS011;8830;50.978;5.058;2023-03-31T09:49:36;7.17;;;1.83;;
17424;SDS011;8830;50.978;5.058;2023-03-31T09:52:05;5.93;;;1.70;;
17424;SDS011;8830;50.978;5.058;2023-03-31T09:54:38;8.87;;;2.47;;
17424;SDS011;8830;50.978;5.058;2023-03-31T09:57:13;5.80;;;1.87;;
17424;SDS011;8830;50.978;5.058;2023-03-31T09:59:42;8.67;;;1.87;;
17424;SDS011;8830;50.978;5.058;2023-03-31T10:05:01;9.67;;;2.57;;
17424;SDS011;8830;50.978;5.058;2023-03-31T10:07:29;7.00;;;2.00;;
17424;SDS011;8830;50.978;5.058;2023-03-31T10:09:56;13.10;;;3.17;;
17424;SDS011;8830;50.978;5.058;2023-03-31T10:12:24;9.43;;;2.27;;
17424;SDS011;8830;50.978;5.058;2023-03-31T10:15:00;7.30;;;2.13;;
17424;SDS011;8830;50.978;5.058;2023-03-31T10:17:40;9.60;;;2.67;;
17424;SDS011;8830;50.978;5.058;2023-03-31T10:20:16;11.37;;;3.10;;
17424;SDS011;8830;50.978;5.058;2023-03-31T10:22:46;10.27;;;2.73;;
17424;SDS011;8830;50.978;5.058;2023-03-31T10:25:15;9.20;;;2.90;;
17424;SDS011;8830;50.978;5.058;2023-03-31T10:27:44;8.90;;;2.70;;
17424;SDS011;8830;50.978;5.058;2023-03-31T10:30:17;13.37;;;3.33;;
17424;SDS011;8830;50.978;5.058;2023-03-31T10:32:48;8.67;;;2.90;;
17424;SDS011;8830;50.978;5.058;2023-03-31T10:35:20;11.73;;;2.90;;
17424;SDS011;8830;50.978;5.058;2023-03-31T10:37:50;18.17;;;3.20;;
17424;SDS011;8830;50.978;5.058;2023-03-31T10:40:22;14.60;;;2.60;;
17424;SDS011;8830;50.978;5.058;2023-03-31T10:42:57;9.77;;;3.10;;
17424;SDS011;8830;50.978;5.058;2023-03-31T10:45:28;13.63;;;2.30;;
17424;SDS011;8830;50.978;5.058;2023-03-31T10:47:57;11.67;;;2.83;;
17424;SDS011;8830;50.978;5.058;2023-03-31T10:50:25;10.10;;;2.90;;
17424;SDS011;8830;50.978;5.058;2023-03-31T10:52:59;11.83;;;3.80;;
17424;SDS011;8830;50.978;5.058;2023-03-31T10:55:30;9.80;;;2.57;;
17424;SDS011;8830;50.978;5.058;2023-03-31T10:58:05;14.50;;;3.20;;
17424;SDS011;8830;50.978;5.058;2023-03-31T11:00:47;7.23;;;2.87;;
17424;SDS011;8830;50.978;5.058;2023-03-31T11:06:20;8.97;;;2.53;;
17424;SDS011;8830;50.978;5.058;2023-03-31T11:08:53;13.47;;;3.57;;
17424;SDS011;8830;50.978;5.058;2023-03-31T11:11:31;7.47;;;2.30;;
17424;SDS011;8830;50.978;5.058;2023-03-31T11:14:14;11.20;;;3.50;;
17424;SDS011;8830;50.978;5.058;2023-03-31T11:16:50;18.97;;;3.37;;
17424;SDS011;8830;50.978;5.058;2023-03-31T11:19:26;7.47;;;2.63;;
17424;SDS011;8830;50.978;5.058;2023-03-31T11:22:04;8.00;;;3.07;;
17424;SDS011;8830;50.978;5.058;2023-03-31T11:24:43;8.97;;;2.83;;
17424;SDS011;8830;50.978;5.058;2023-03-31T11:27:25;13.77;;;3.23;;
17424;SDS011;8830;50.978;5.058;2023-03-31T11:30:03;19.20;;;3.10;;
17424;SDS011;8830;50.978;5.058;2023-03-31T11:32:47;11.07;;;2.83;;
17424;SDS011;8830;50.978;5.058;2023-03-31T11:35:34;7.40;;;2.53;;
17424;SDS011;8830;50.978;5.058;2023-03-31T11:38:21;8.63;;;2.30;;
17424;SDS011;8830;50.978;5.058;2023-03-31T11:41:04;9.97;;;2.50;;
17424;SDS011;8830;50.978;5.058;2023-03-31T11:43:35;12.83;;;2.53;;
17424;SDS011;8830;50.978;5.058;2023-03-31T11:46:10;9.10;;;2.23;;
17424;SDS011;8830;50.978;5.058;2023-03-31T11:48:42;10.90;;;3.13;;
17424;SDS011;8830;50.978;5.058;2023-03-31T11:51:15;8.07;;;1.97;;
17424;SDS011;8830;50.978;5.058;2023-03-31T11:53:45;10.60;;;2.03;;
17424;SDS011;8830;50.978;5.058;2023-03-31T11:56:14;7.83;;;1.97;;
17424;SDS011;8830;50.978;5.058;2023-03-31T11:58:43;7.50;;;1.90;;
17424;SDS011;8830;50.978;5.058;2023-03-31T12:01:14;6.03;;;2.00;;
17424;SDS011;8830;50.978;5.058;2023-03-31T12:03:50;9.97;;;3.30;;
17424;SDS011;8830;50.978;5.058;2023-03-31T12:06:22;6.40;;;1.90;;
17424;SDS011;8830;50.978;5.058;2023-03-31T12:08:56;6.37;;;2.10;;
17424;SDS011;8830;50.978;5.058;2023-03-31T12:11:31;7.07;;;2.23;;
17424;SDS011;8830;50.978;5.058;2023-03-31T12:14:20;10.90;;;2.60;;
17424;SDS011;8830;50.978;5.058;2023-03-31T12:16:53;7.90;;;2.13;;
17424;SDS011;8830;50.978;5.058;2023-03-31T12:19:25;11.57;;;2.97;;
17424;SDS011;8830;50.978;5.058;2023-03-31T12:21:57;5.30;;;2.07;;
17424;SDS011;8830;50.978;5.058;2023-03-31T12:24:33;8.47;;;2.23;;
17424;SDS011;8830;50.978;5.058;2023-03-31T12:27:02;6.73;;;1.73;;
17424;SDS011;8830;50.978;5.058;2023-03-31T12:29:36;9.50;;;2.27;;
17424;SDS011;8830;50.978;5.058;2023-03-31T12:32:09;9.07;;;2.53;;
17424;SDS011;8830;50.978;5.058;2023-03-31T12:34:44;12.13;;;2.67;;
17424;SDS011;8830;50.978;5.058;2023-03-31T12:40:17;7.67;;;2.70;;
17424;SDS011;8830;50.978;5.058;2023-03-31T12:43:06;10.07;;;2.30;;
17424;SDS011;8830;50.978;5.058;2023-03-31T12:45:48;9.67;;;2.33;;
17424;SDS011;8830;50.978;5.058;2023-03-31T12:48:27;9.60;;;2.40;;
17424;SDS011;8830;50.978;5.058;2023-03-31T12:51:21;7.43;;;2.40;;
17424;SDS011;8830;50.978;5.058;2023-03-31T12:54:07;8.00;;;2.00;;
17424;SDS011;8830;50.978;5.058;2023-03-31T12:59:31;11.53;;;2.63;;
17424;SDS011;8830;50.978;5.058;2023-03-31T13:02:20;6.10;;;1.73;;
17424;SDS011;8830;50.978;5.058;2023-03-31T13:04:50;5.83;;;1.93;;
17424;SDS011;8830;50.978;5.058;2023-03-31T13:13:04;7.70;;;2.30;;
17424;SDS011;8830;50.978;5.058;2023-03-31T13:15:38;12.47;;;2.43;;
17424;SDS011;8830;50.978;5.058;2023-03-31T13:18:06;10.90;;;3.77;;
17424;SDS011;8830;50.978;5.058;2023-03-31T13:20:34;6.67;;;1.87;;
17424;SDS011;8830;50.978;5.058;2023-03-31T13:23:04;8.87;;;2.00;;
17424;SDS011;8830;50.978;5.058;2023-03-31T13:25:44;4.87;;;1.73;;
17424;SDS011;8830;50.978;5.058;2023-03-31T13:31:06;4.00;;;1.43;;
17424;SDS011;8830;50.978;5.058;2023-03-31T13:33:36;8.97;;;1.83;;
17424;SDS011;8830;50.978;5.058;2023-03-31T13:39:19;3.67;;;1.33;;
17424;SDS011;8830;50.978;5.058;2023-03-31T13:42:02;6.67;;;1.50;;
17424;SDS011;8830;50.978;5.058;2023-03-31T13:47:41;3.00;;;0.70;;
17424;SDS011;8830;50.978;5.058;2023-03-31T13:50:36;4.63;;;1.43;;
17424;SDS011;8830;50.978;5.058;2023-03-31T13:53:15;2.97;;;1.03;;
17424;SDS011;8830;50.978;5.058;2023-03-31T13:59:12;4.03;;;1.50;;
17424;SDS011;8830;50.978;5.058;2023-03-31T14:01:59;5.70;;;2.33;;
17424;SDS011;8830;50.978;5.058;2023-03-31T14:05:03;3.87;;;1.40;;
17424;SDS011;8830;50.978;5.058;2023-03-31T14:07:49;3.53;;;1.80;;
17424;SDS011;8830;50.978;5.058;2023-03-31T14:10:22;4.13;;;1.50;;
17424;SDS011;8830;50.978;5.058;2023-03-31T14:12:51;5.93;;;1.70;;
17424;SDS011;8830;50.978;5.058;2023-03-31T14:15:29;3.73;;;1.20;;
17424;SDS011;8830;50.978;5.058;2023-03-31T14:17:56;7.00;;;2.00;;
17424;SDS011;8830;50.978;5.058;2023-03-31T14:20:28;7.07;;;1.90;;
17424;SDS011;8830;50.978;5.058;2023-03-31T14:23:08;5.27;;;1.37;;
17424;SDS011;8830;50.978;5.058;2023-03-31T14:25:43;4.60;;;1.40;;
17424;SDS011;8830;50.978;5.058;2023-03-31T14:31:14;2.27;;;1.07;;
17424;SDS011;8830;50.978;5.058;2023-03-31T14:33:52;3.73;;;1.23;;
17424;SDS011;8830;50.978;5.058;2023-03-31T14:36:34;3.73;;;1.07;;
17424;SDS011;8830;50.978;5.058;2023-03-31T14:39:08;3.30;;;1.43;;
17424;SDS011;8830;50.978;5.058;2023-03-31T14:41:37;3.47;;;0.90;;
17424;SDS011;8830;50.978;5.058;2023-03-31T14:44:06;3.90;;;1.37;;
17424;SDS011;8830;50.978;5.058;2023-03-31T14:46:39;3.33;;;0.87;;
17424;SDS011;8830;50.978;5.058;2023-03-31T14:49:06;2.80;;;0.80;;
17424;SDS011;8830;50.978;5.058;2023-03-31T14:51:45;2.70;;;0.83;;
17424;SDS011;8830;50.978;5.058;2023-03-31T14:54:14;1.70;;;0.67;;
17424;SDS011;8830;50.978;5.058;2023-03-31T14:56:43;3.80;;;0.80;;
17424;SDS011;8830;50.978;5.058;2023-03-31T15:01:43;0.90;;;0.40;;
17424;SDS011;8830;50.978;5.058;2023-03-31T15:04:14;1.07;;;0.70;;
17424;SDS011;8830;50.978;5.058;2023-03-31T15:06:45;0.83;;;0.70;;
17424;SDS011;8830;50.978;5.058;2023-03-31T15:09:15;2.53;;;0.93;;
17424;SDS011;8830;50.978;5.058;2023-03-31T15:11:46;1.43;;;0.70;;
17424;SDS011;8830;50.978;5.058;2023-03-31T15:14:13;2.17;;;1.07;;
17424;SDS011;8830;50.978;5.058;2023-03-31T15:16:41;2.60;;;0.57;;
17424;SDS011;8830;50.978;5.058;2023-03-31T15:19:16;0.97;;;0.80;;
17424;SDS011;8830;50.978;5.058;2023-03-31T15:21:46;0.80;;;0.33;;
17424;SDS011;8830;50.978;5.058;2023-03-31T15:24:20;1.77;;;0.50;;
17424;SDS011;8830;50.978;5.058;2023-03-31T15:26:50;0.60;;;0.30;;
17424;SDS011;8830;50.978;5.058;2023-03-31T15:29:23;0.77;;;0.27;;
17424;SDS011;8830;50.978;5.058;2023-03-31T15:31:57;1.20;;;0.50;;
17424;SDS011;8830;50.978;5.058;2023-03-31T15:34:29;0.90;;;0.33;;
17424;SDS011;8830;50.978;5.058;2023-03-31T15:36:58;3.20;;;0.53;;
17424;SDS011;8830;50.978;5.058;2023-03-31T15:39:26;1.77;;;0.50;;
17424;SDS011;8830;50.978;5.058;2023-03-31T15:41:55;1.07;;;0.40;;
17424;SDS011;8830;50.978;5.058;2023-03-31T15:47:16;1.20;;;1.00;;
17424;SDS011;8830;50.978;5.058;2023-03-31T15:49:52;1.57;;;0.60;;
17424;SDS011;8830;50.978;5.058;2023-03-31T15:52:28;1.63;;;0.60;;
17424;SDS011;8830;50.978;5.058;2023-03-31T15:54:59;1.07;;;0.60;;
17424;SDS011;8830;50.978;5.058;2023-03-31T15:57:33;1.37;;;0.50;;
17424;SDS011;8830;50.978;5.058;2023-03-31T16:00:00;0.83;;;0.43;;
17424;SDS011;8830;50.978;5.058;2023-03-31T16:02:38;1.40;;;0.70;;
17424;SDS011;8830;50.978;5.058;2023-03-31T16:05:26;2.73;;;1.20;;
17424;SDS011;8830;50.978;5.058;2023-03-31T16:08:00;1.27;;;0.67;;
17424;SDS011;8830;50.978;5.058;2023-03-31T16:10:28;1.47;;;0.90;;
17424;SDS011;8830;50.978;5.058;2023-03-31T16:12:57;5.40;;;0.97;;
17424;SDS011;8830;50.978;5.058;2023-03-31T16:15:28;1.97;;;0.60;;
17424;SDS011;8830;50.978;5.058;2023-03-31T16:17:58;2.27;;;0.60;;
17424;SDS011;8830;50.978;5.058;2023-03-31T16:20:29;2.23;;;1.00;;